Time;durP1;ratioP1;P1;durP2;ratioP2;P2;SDS_P1;SDS_P2;PMS_P1;PMS_P2;Temp;Humidity;BMP_temperature;BMP_pressure;BME280_temperature;BME280_humidity;BME280_pressure;Samples;Min_cycle;Max_cycle;Signal;HPM_P1;HPM_P2
2022/01/08 00:01:03;;;;;;;83.23;38.40;;;4.00;99.90;;;;;;6162164;23;20165;-88
2022/01/08 00:03:35;;;;;;;79.53;32.27;;;4.00;99.90;;;;;;6162124;23;20444;-88
2022/01/08 00:06:00;;;;;;;78.03;30.23;;;4.00;99.90;;;;;;6162300;23;20357;-88
2022/01/08 00:08:29;;;;;;;78.23;29.47;;;4.00;99.90;;;;;;6162000;23;20169;-88
2022/01/08 00:10:54;;;;;;;79.18;31.08;;;4.00;99.90;;;;;;6162818;23;20149;-88
2022/01/08 00:13:21;;;;;;;79.00;27.13;;;4.00;99.90;;;;;;6161538;23;20166;-88
2022/01/08 00:15:47;;;;;;;80.05;28.10;;;4.10;99.90;;;;;;6161813;23;20160;-88
2022/01/08 00:18:13;;;;;;;78.60;31.17;;;4.10;99.90;;;;;;6135582;23;20146;-89
2022/01/08 00:20:39;;;;;;;78.57;29.77;;;4.00;99.90;;;;;;6162565;23;20381;-88
2022/01/08 00:23:05;;;;;;;81.22;29.83;;;4.10;99.90;;;;;;6161653;23;20169;-89
2022/01/08 00:25:31;;;;;;;78.40;27.30;;;4.00;99.90;;;;;;6160156;23;20174;-88
2022/01/08 00:27:57;;;;;;;78.27;29.13;;;4.00;99.90;;;;;;6134862;23;20390;-89
2022/01/08 00:30:23;;;;;;;78.32;30.00;;;4.00;99.90;;;;;;6161204;23;20169;-88
2022/01/08 00:32:49;;;;;;;81.45;37.47;;;4.00;99.90;;;;;;6160983;23;20500;-88
2022/01/08 00:35:17;;;;;;;81.87;40.87;;;4.00;99.90;;;;;;6161953;23;20158;-89
2022/01/08 00:37:43;;;;;;;92.82;61.28;;;3.90;99.90;;;;;;6160434;23;20370;-88
2022/01/08 00:40:10;;;;;;;87.37;51.73;;;3.90;99.90;;;;;;6160088;23;20145;-88
2022/01/08 00:42:37;;;;;;;88.38;58.13;;;4.00;99.90;;;;;;6132874;23;20585;-89
2022/01/08 00:45:05;;;;;;;93.47;77.25;;;4.00;99.90;;;;;;6157675;23;20193;-88
2022/01/08 00:47:30;;;;;;;97.63;80.90;;;3.90;99.90;;;;;;6157382;23;20142;-88
2022/01/08 00:49:57;;;;;;;90.53;67.30;;;3.90;99.90;;;;;;6130864;23;20189;-88
2022/01/08 00:52:23;;;;;;;104.03;85.70;;;4.00;99.90;;;;;;6131104;23;20196;-88
2022/01/08 00:54:49;;;;;;;88.97;64.37;;;4.00;99.90;;;;;;6131619;23;20165;-88
2022/01/08 00:57:14;;;;;;;91.93;71.23;;;4.00;99.90;;;;;;6157586;23;20596;-88
2022/01/08 00:59:40;;;;;;;96.10;82.40;;;4.00;99.90;;;;;;6131973;23;20150;-87
2022/01/08 01:02:06;;;;;;;95.60;74.80;;;4.00;99.90;;;;;;6132272;23;20146;-88
2022/01/08 01:04:32;;;;;;;96.00;80.67;;;4.00;99.90;;;;;;6132818;23;20165;-88
2022/01/08 01:06:57;;;;;;;92.97;79.60;;;4.00;99.90;;;;;;6158543;23;20142;-88
2022/01/08 01:09:24;;;;;;;93.70;76.80;;;4.00;99.90;;;;;;6133129;23;20146;-88
2022/01/08 01:11:56;;;;;;;94.05;79.13;;;4.10;99.90;;;;;;6132680;23;20152;-88
2022/01/08 01:14:25;;;;;;;92.35;77.15;;;4.10;99.90;;;;;;6158992;23;20236;-88
2022/01/08 01:16:52;;;;;;;92.53;76.55;;;4.10;99.90;;;;;;6158428;23;20153;-88
2022/01/08 01:19:21;;;;;;;101.18;89.88;;;4.10;99.90;;;;;;6128973;23;20198;-83
2022/01/08 01:21:48;;;;;;;98.25;83.70;;;4.10;99.90;;;;;;6159532;23;20127;-82
2022/01/08 01:24:18;;;;;;;95.47;81.20;;;4.10;99.90;;;;;;6133835;23;20257;-83
2022/01/08 01:27:17;;;;;;;93.10;74.28;;;4.20;99.90;;;;;;6133615;23;20197;-83
2022/01/08 01:48:37;;;;;;;95.53;75.38;;;4.30;99.90;;;;;;6160189;23;20209;-83
2022/01/08 01:51:03;;;;;;;93.90;79.00;;;4.30;99.90;;;;;;6159858;23;20142;-83
2022/01/08 01:53:29;;;;;;;92.00;72.20;;;4.30;99.90;;;;;;6135133;23;20173;-83
2022/01/08 01:55:55;;;;;;;93.43;82.07;;;4.20;99.90;;;;;;6135131;23;20192;-83
2022/01/08 01:58:29;;;;;;;91.73;73.30;;;4.10;99.90;;;;;;6135687;23;20153;-84
2022/01/08 02:00:56;;;;;;;93.13;71.40;;;4.20;99.90;;;;;;6161846;23;20341;-83
2022/01/08 02:03:22;;;;;;;89.68;69.05;;;4.10;99.90;;;;;;6135398;23;20495;-83
2022/01/08 02:05:47;;;;;;;91.60;72.07;;;4.10;99.90;;;;;;6135230;23;20170;-83
2022/01/08 02:08:14;;;;;;;90.03;66.87;;;4.00;99.90;;;;;;6135448;23;20157;-83
2022/01/08 02:10:40;;;;;;;89.03;55.85;;;3.90;99.90;;;;;;6161732;23;20154;-83
2022/01/08 02:13:09;;;;;;;89.45;55.83;;;3.80;99.90;;;;;;6161344;23;20168;-83
2022/01/08 02:15:39;;;;;;;80.40;40.97;;;3.70;99.90;;;;;;6134572;23;20172;-83
2022/01/08 02:18:05;;;;;;;83.28;47.78;;;3.60;99.90;;;;;;6161707;23;20157;-83
2022/01/08 02:20:35;;;;;;;83.20;48.73;;;3.50;99.90;;;;;;6161533;23;20675;-84
2022/01/08 02:23:03;;;;;;;84.43;49.92;;;3.40;99.90;;;;;;6136155;23;20390;-84
2022/01/08 02:25:35;;;;;;;80.05;37.75;;;3.30;99.90;;;;;;6162070;23;20166;-84
2022/01/08 02:28:04;;;;;;;83.18;43.95;;;3.20;99.90;;;;;;6162430;23;20148;-84
2022/01/08 02:30:38;;;;;;;81.68;45.45;;;3.20;99.90;;;;;;6161329;23;20520;-83
2022/01/08 02:33:04;;;;;;;86.28;53.58;;;3.10;99.90;;;;;;6162634;23;20181;-84
2022/01/08 02:35:34;;;;;;;87.67;56.30;;;3.00;99.90;;;;;;6162038;23;20500;-83
2022/01/08 02:38:03;;;;;;;93.10;61.78;;;3.00;99.90;;;;;;6136102;23;20146;-84
2022/01/08 02:40:36;;;;;;;83.68;51.78;;;3.00;99.90;;;;;;6135434;23;20154;-84
2022/01/08 02:43:04;;;;;;;83.72;51.30;;;3.00;99.90;;;;;;6162195;23;20126;-84
2022/01/08 02:45:31;;;;;;;89.38;56.95;;;3.00;99.90;;;;;;6161661;23;20162;-84
2022/01/08 02:47:57;;;;;;;84.53;56.15;;;3.00;99.90;;;;;;6161617;23;20544;-84
2022/01/08 02:50:26;;;;;;;85.40;48.08;;;3.00;99.90;;;;;;6161724;23;20146;-83
2022/01/08 02:52:52;;;;;;;89.70;58.15;;;2.90;99.90;;;;;;6135485;23;20166;-84
2022/01/08 02:55:26;;;;;;;88.27;56.50;;;2.90;99.90;;;;;;6161474;23;20158;-83
2022/01/08 02:57:52;;;;;;;96.95;67.95;;;3.00;99.90;;;;;;6161940;23;20338;-83
2022/01/08 03:00:20;;;;;;;86.40;56.27;;;3.00;99.90;;;;;;6135856;23;20293;-83
2022/01/08 03:02:49;;;;;;;88.60;59.88;;;3.00;99.90;;;;;;6135569;23;20483;-84
2022/01/08 03:05:17;;;;;;;88.72;59.03;;;2.90;99.90;;;;;;6161196;23;20632;-84
2022/01/08 03:07:44;;;;;;;87.80;52.40;;;2.90;99.90;;;;;;6136086;23;20149;-83
2022/01/08 03:10:13;;;;;;;85.95;53.60;;;2.80;99.90;;;;;;6136043;23;20157;-84
2022/01/08 03:12:43;;;;;;;97.72;68.22;;;2.80;99.90;;;;;;6135384;23;20178;-83
2022/01/08 03:15:23;;;;;;;90.18;55.72;;;2.80;99.90;;;;;;6161932;23;20631;-83
2022/01/08 03:17:49;;;;;;;87.80;54.85;;;2.80;99.90;;;;;;6161520;23;20513;-84
2022/01/08 03:20:18;;;;;;;85.65;51.90;;;2.80;99.90;;;;;;6135298;23;20161;-84
2022/01/08 03:23:01;;;;;;;90.47;51.70;;;2.70;99.90;;;;;;6161184;23;20480;-83
2022/01/08 03:25:32;;;;;;;89.70;62.80;;;2.80;99.90;;;;;;6161351;23;20161;-84
2022/01/08 03:28:04;;;;;;;89.32;56.38;;;2.90;99.90;;;;;;6135263;23;20142;-83
2022/01/08 03:30:34;;;;;;;90.32;62.80;;;2.90;99.90;;;;;;6161929;23;20618;-83
2022/01/08 03:33:07;;;;;;;87.95;64.88;;;2.90;99.90;;;;;;6161069;23;20153;-83
2022/01/08 03:35:33;;;;;;;91.18;61.95;;;2.90;99.90;;;;;;6161085;23;20158;-84
2022/01/08 03:38:00;;;;;;;97.80;86.65;;;3.00;99.90;;;;;;6161574;23;20596;-83
2022/01/08 03:40:31;;;;;;;97.35;86.60;;;2.90;99.90;;;;;;6160912;23;20591;-84
2022/01/08 03:43:05;;;;;;;95.57;76.32;;;2.90;99.90;;;;;;6162050;23;20134;-84
2022/01/08 03:45:33;;;;;;;104.80;93.47;;;3.00;99.90;;;;;;6161257;23;20162;-83
2022/01/08 03:48:26;;;;;;;150.93;137.70;;;3.00;99.90;;;;;;6135948;23;20157;-84
2022/01/08 03:50:52;;;;;;;105.30;89.57;;;3.00;99.90;;;;;;6161967;23;20127;-84
2022/01/08 03:53:18;;;;;;;99.47;80.63;;;3.00;99.90;;;;;;6161625;23;20169;-83
2022/01/08 03:55:46;;;;;;;99.57;80.00;;;3.00;99.90;;;;;;6135432;23;20551;-83
2022/01/08 03:58:21;;;;;;;110.00;98.35;;;3.00;99.90;;;;;;6161156;23;20760;-84
2022/01/08 04:00:53;;;;;;;102.00;90.53;;;2.90;99.90;;;;;;6135656;23;20586;-83
2022/01/08 04:03:19;;;;;;;106.30;85.22;;;2.90;99.90;;;;;;6161212;23;20608;-83
2022/01/08 04:05:49;;;;;;;98.37;77.30;;;2.90;99.90;;;;;;6161787;23;20250;-84
2022/01/08 04:08:24;;;;;;;97.57;76.18;;;3.00;99.90;;;;;;6134891;23;20396;-84
2022/01/08 04:10:52;;;;;;;96.90;75.25;;;3.00;99.90;;;;;;6161830;23;20134;-83
2022/01/08 04:13:24;;;;;;;95.93;65.63;;;2.90;99.90;;;;;;6135207;23;20165;-83
2022/01/08 04:15:57;;;;;;;99.53;73.50;;;2.90;99.90;;;;;;6136044;23;20181;-83
2022/01/08 04:18:22;;;;;;;98.38;77.25;;;2.80;99.90;;;;;;6161955;23;20119;-84
2022/01/08 04:23:44;;;;;;;97.15;69.53;;;2.80;99.90;;;;;;6161707;23;20196;-84
2022/01/08 04:26:19;;;;;;;100.75;74.15;;;2.90;99.90;;;;;;6161705;23;20265;-83
2022/01/08 04:28:45;;;;;;;101.13;82.88;;;2.80;99.90;;;;;;6161388;23;20146;-84
2022/01/08 04:31:15;;;;;;;107.10;95.30;;;2.80;99.90;;;;;;6161211;23;20453;-84
2022/01/08 04:33:41;;;;;;;103.75;86.13;;;2.70;99.90;;;;;;6161066;23;20417;-83
2022/01/08 04:36:12;;;;;;;107.83;86.07;;;2.80;99.90;;;;;;6135601;23;20193;-83
2022/01/08 04:38:38;;;;;;;103.35;85.30;;;2.80;99.90;;;;;;6160878;23;20423;-83
2022/01/08 04:41:06;;;;;;;112.47;100.50;;;2.70;99.90;;;;;;6135006;23;20603;-83
2022/01/08 04:43:37;;;;;;;114.00;95.55;;;2.70;99.90;;;;;;6134966;23;20240;-83
2022/01/08 04:46:04;;;;;;;110.68;98.47;;;2.70;99.90;;;;;;6161080;23;20142;-84
2022/01/08 04:48:30;;;;;;;109.95;98.25;;;2.70;99.90;;;;;;6135180;23;20150;-84
2022/01/08 04:50:56;;;;;;;107.75;85.88;;;2.70;99.90;;;;;;6160754;23;20145;-84
2022/01/08 04:53:27;;;;;;;105.00;83.90;;;2.70;99.90;;;;;;6160917;23;20500;-84
2022/01/08 04:56:01;;;;;;;115.00;91.53;;;2.70;99.90;;;;;;6160599;23;20350;-84
2022/01/08 04:58:28;;;;;;;118.18;101.05;;;2.70;99.90;;;;;;6135541;23;20483;-83
2022/01/08 05:00:54;;;;;;;114.45;102.43;;;2.70;99.90;;;;;;6160670;23;20615;-83
2022/01/08 05:03:20;;;;;;;98.75;72.93;;;2.80;99.90;;;;;;6160502;23;20149;-84
2022/01/08 05:05:48;;;;;;;105.30;75.27;;;2.80;99.90;;;;;;6135082;23;20146;-85
2022/01/08 05:08:17;;;;;;;101.22;78.95;;;2.80;99.90;;;;;;6160743;23;20433;-85
2022/01/08 05:10:57;;;;;;;93.72;62.85;;;2.80;99.90;;;;;;6160656;23;20173;-85
2022/01/08 05:13:23;;;;;;;104.55;75.03;;;2.70;99.90;;;;;;6134073;23;20170;-85
2022/01/08 05:15:49;;;;;;;94.90;63.17;;;2.70;99.90;;;;;;6160335;23;20137;-85
2022/01/08 05:18:17;;;;;;;95.13;57.30;;;2.80;99.90;;;;;;6159659;23;20208;-85
2022/01/08 05:23:34;;;;;;;96.32;54.63;;;2.70;99.90;;;;;;6145394;23;20150;-85
2022/01/08 05:26:00;;;;;;;96.90;67.82;;;2.70;99.90;;;;;;6161407;23;20153;-85
2022/01/08 05:28:26;;;;;;;104.13;62.67;;;2.70;99.90;;;;;;6162150;23;20150;-84
2022/01/08 05:30:57;;;;;;;110.67;86.70;;;2.60;99.90;;;;;;6162332;23;20177;-85
2022/01/08 05:33:26;;;;;;;96.45;60.95;;;2.50;99.90;;;;;;6162082;23;20162;-84
2022/01/08 05:35:52;;;;;;;99.97;73.13;;;2.50;99.90;;;;;;6162235;23;20492;-85
2022/01/08 05:38:28;;;;;;;99.40;65.65;;;2.60;99.90;;;;;;6162178;23;20142;-85
2022/01/08 05:40:54;;;;;;;108.32;69.70;;;2.50;99.90;;;;;;6162547;23;20126;-84
2022/01/08 05:43:23;;;;;;;96.37;59.93;;;2.60;99.90;;;;;;6162559;23;20201;-84
2022/01/08 05:45:53;;;;;;;99.40;68.97;;;2.60;99.90;;;;;;6137361;23;20927;-84
2022/01/08 05:48:21;;;;;;;94.68;56.60;;;2.60;99.90;;;;;;6136272;23;20142;-85
2022/01/08 05:50:49;;;;;;;99.97;67.05;;;2.60;99.90;;;;;;6162475;23;20154;-84
2022/01/08 05:53:16;;;;;;;105.78;76.13;;;2.40;99.90;;;;;;6136323;23;20170;-84
2022/01/08 05:55:42;;;;;;;96.00;60.47;;;2.50;99.90;;;;;;6162471;23;20158;-85
2022/01/08 05:58:08;;;;;;;97.43;66.07;;;2.50;99.90;;;;;;6136626;23;20153;-84
2022/01/08 06:00:36;;;;;;;91.40;53.22;;;2.50;99.90;;;;;;6163037;23;20141;-85
2022/01/08 06:03:05;;;;;;;94.80;55.20;;;2.50;99.90;;;;;;6136811;23;20177;-84
2022/01/08 06:05:31;;;;;;;101.57;64.03;;;2.50;99.90;;;;;;6162303;23;20169;-85
2022/01/08 06:07:59;;;;;;;103.73;76.43;;;2.50;99.90;;;;;;6163047;23;20225;-84
2022/01/08 06:10:24;;;;;;;99.45;76.57;;;2.40;99.90;;;;;;6136155;23;20603;-84
2022/01/08 06:12:53;;;;;;;99.97;75.90;;;2.40;99.90;;;;;;6162037;23;20168;-85
2022/01/08 06:15:20;;;;;;;106.80;67.80;;;2.40;99.90;;;;;;6162590;23;20158;-85
2022/01/08 06:17:51;;;;;;;99.68;69.63;;;2.50;99.90;;;;;;6161913;23;20519;-84
2022/01/08 06:20:17;;;;;;;95.45;64.10;;;2.50;99.90;;;;;;6136227;23;20172;-84
2022/01/08 06:22:46;;;;;;;100.93;57.92;;;2.50;99.90;;;;;;6161958;23;20148;-85
2022/01/08 06:25:12;;;;;;;98.80;69.05;;;2.40;99.90;;;;;;6136692;23;20177;-84
2022/01/08 06:27:44;;;;;;;96.53;61.97;;;2.30;99.90;;;;;;6161855;23;20150;-84
2022/01/08 06:30:13;;;;;;;107.85;76.55;;;2.20;99.90;;;;;;6135496;23;20370;-84
2022/01/08 06:32:39;;;;;;;98.88;70.72;;;2.20;99.90;;;;;;6160988;23;20158;-84
2022/01/08 06:35:05;;;;;;;98.43;70.53;;;2.20;99.90;;;;;;6135775;23;20201;-84
2022/01/08 06:37:31;;;;;;;101.90;88.82;;;2.20;99.90;;;;;;6135774;23;20233;-84
2022/01/08 06:39:57;;;;;;;99.03;79.70;;;2.30;99.90;;;;;;6162282;23;20153;-84
2022/01/08 06:42:23;;;;;;;100.37;70.03;;;2.30;99.90;;;;;;6136620;23;20177;-84
2022/01/08 06:44:48;;;;;;;100.63;71.07;;;2.40;99.90;;;;;;6162372;23;20885;-84
2022/01/08 06:47:14;;;;;;;104.47;72.90;;;2.40;99.90;;;;;;6161781;23;20142;-84
2022/01/08 06:49:40;;;;;;;101.50;80.20;;;2.50;99.90;;;;;;6160951;23;20369;-84
2022/01/08 06:52:06;;;;;;;97.40;72.77;;;2.50;99.90;;;;;;6161618;23;20397;-84
2022/01/08 06:54:32;;;;;;;99.03;77.80;;;2.50;99.90;;;;;;6135472;23;20176;-84
2022/01/08 06:57:06;;;;;;;100.43;70.03;;;2.50;99.90;;;;;;6161087;23;20384;-84
2022/01/08 06:59:32;;;;;;;92.50;58.65;;;2.40;99.90;;;;;;6161732;23;20357;-84
2022/01/08 07:02:08;;;;;;;112.47;99.28;;;2.50;99.90;;;;;;6161406;23;20139;-83
2022/01/08 07:04:34;;;;;;;97.80;70.60;;;2.40;99.90;;;;;;6160949;23;20168;-84
2022/01/08 07:07:03;;;;;;;99.27;77.80;;;2.30;99.90;;;;;;6161905;23;20127;-84
2022/01/08 07:09:29;;;;;;;94.43;66.25;;;2.30;99.90;;;;;;6161232;23;20198;-84
2022/01/08 07:11:54;;;;;;;101.70;72.83;;;2.30;99.90;;;;;;6134814;23;20153;-84
2022/01/08 07:14:20;;;;;;;94.93;63.27;;;2.30;99.90;;;;;;6161070;23;20416;-84
2022/01/08 07:16:48;;;;;;;96.23;72.57;;;2.30;99.90;;;;;;6161442;23;20138;-84
2022/01/08 07:42:50;;;;;;;101.53;78.45;;;2.20;99.90;;;;;;5981561;24;20154;-90
2022/01/08 07:46:44;;;;;;;;;;;;;;;;;;;;;
2022/01/08 08:11:43;;;;;;;134.57;121.78;;;2.50;99.90;;;;;;6186253;23;20507;-90
2022/01/08 08:14:55;;;;;;;139.93;127.30;;;2.60;99.90;;;;;;6012599;23;20210;-89
2022/01/08 08:17:58;;;;;;;129.68;116.47;;;2.70;99.90;;;;;;6041165;23;20167;-89
2022/01/08 08:21:05;;;;;;;130.20;117.38;;;2.90;99.90;;;;;;6188794;23;20148;-89
2022/01/08 09:58:41;;;;;;;;;;;;;;;;;;;;;
2022/01/08 10:01:55;;;;;;;88.00;49.05;;;3.90;99.90;;;;;;6126557;23;20213;-87
2022/01/08 10:04:47;;;;;;;84.03;47.13;;;3.80;99.90;;;;;;6052650;23;20662;-87
2022/01/08 10:27:06;;;;;;;83.20;45.05;;;3.90;99.90;;;;;;6187523;23;20177;-87
2022/01/08 10:37:33;;;;;;;83.63;44.80;;;3.90;99.90;;;;;;6009946;23;20588;-87
2022/01/08 10:47:20;;;;;;;84.68;42.67;;;4.00;99.90;;;;;;5899119;24;20162;-87
2022/01/08 10:50:52;;;;;;;;;;;;;;;;;;;;;
2022/01/08 10:54:17;;;;;;;84.32;48.85;;;4.10;99.90;;;;;;5898743;24;20267;-88
2022/01/08 11:00:31;;;;;;;83.60;41.50;;;4.20;99.90;;;;;;5889301;23;20172;-88
2022/01/08 11:03:41;;;;;;;85.75;45.67;;;4.40;99.90;;;;;;6039063;23;20132;-87
2022/01/08 11:20:45;;;;;;;;;;;;;;;;;;;;;
2022/01/08 11:29:34;;;;;;;76.30;24.75;;;4.90;99.90;;;;;;6009516;23;20209;-87
2022/01/08 11:39:42;;;;;;;;;;;;;;;;;;;;;
2022/01/08 11:42:28;;;;;;;;;;;;;;;;;;;;;
2022/01/08 11:45:09;;;;;;;;;;;;;;;;;;;;;
2022/01/08 11:48:15;;;;;;;80.32;31.60;;;4.80;99.90;;;;;;6122238;23;20621;-87
2022/01/08 11:51:06;;;;;;;72.85;13.90;;;4.70;99.90;;;;;;5983777;23;20149;-87
2022/01/08 12:04:50;;;;;;;72.97;15.27;;;4.80;99.90;;;;;;6125164;23;20206;-88
2022/01/08 12:08:24;;;;;;;76.13;11.45;;;4.80;99.90;;;;;;6034428;23;20143;-88
2022/01/08 12:14:58;;;;;;;;;;;;;;;;;;;;;
2022/01/08 12:20:56;;;;;;;70.85;10.73;;;5.00;99.90;;;;;;5870629;24;20655;-88
2022/01/08 12:23:59;;;;;;;72.93;12.50;;;5.00;99.90;;;;;;5831546;24;20183;-88
2022/01/08 12:26:28;;;;;;;72.10;11.20;;;5.10;99.90;;;;;;5847925;24;20163;-88
2022/01/08 12:30:21;;;;;;;79.68;18.02;;;5.00;99.90;;;;;;5872335;24;20163;-88
2022/01/08 12:32:47;;;;;;;73.53;16.23;;;5.10;99.90;;;;;;5861994;24;20205;-88
2022/01/08 12:35:45;;;;;;;79.07;11.77;;;5.00;99.90;;;;;;6086331;23;20285;-88
2022/01/08 12:39:01;;;;;;;;;;;;;;;;;;;;;
2022/01/08 12:45:33;;;;;;;73.65;20.80;;;4.90;99.90;;;;;;6007569;23;20180;-87
2022/01/08 12:52:25;;;;;;;74.35;14.18;;;4.80;99.90;;;;;;5925522;24;20151;-87
2022/01/08 12:55:30;;;;;;;72.57;13.00;;;4.80;99.90;;;;;;5817091;24;20201;-88
2022/01/08 12:58:56;;;;;;;71.88;13.45;;;4.80;99.90;;;;;;5782090;24;20157;-88
2022/01/08 13:01:52;;;;;;;71.28;13.05;;;4.80;99.90;;;;;;5993545;23;20164;-87
2022/01/08 13:04:58;;;;;;;76.78;17.00;;;4.80;99.90;;;;;;5964215;23;20626;-87
2022/01/08 13:08:19;;;;;;;;;;;;;;;;;;;;;
2022/01/08 13:11:13;;;;;;;73.90;18.92;;;4.70;99.90;;;;;;6038214;23;20240;-87
2022/01/08 13:14:36;;;;;;;76.03;17.15;;;4.90;99.90;;;;;;6005601;23;20546;-88
2022/01/08 13:20:26;;;;;;;89.13;29.17;;;4.70;99.90;;;;;;6066867;23;20216;-88
2022/01/08 13:22:51;;;;;;;73.90;15.07;;;4.80;99.90;;;;;;6114881;23;20210;-89
2022/01/08 13:25:17;;;;;;;77.00;20.90;;;4.80;99.90;;;;;;6140353;23;20169;-88
2022/01/08 13:27:49;;;;;;;90.80;28.37;;;4.80;99.90;;;;;;6140597;23;20142;-89
2022/01/08 13:30:16;;;;;;;84.10;28.23;;;4.80;99.90;;;;;;6139654;23;20351;-88
2022/01/08 13:32:42;;;;;;;77.68;27.17;;;4.90;99.90;;;;;;6114647;23;20198;-89
2022/01/08 13:35:08;;;;;;;76.10;27.07;;;4.90;99.90;;;;;;6140450;23;20583;-88
2022/01/08 13:37:34;;;;;;;78.75;21.13;;;4.90;99.90;;;;;;6140970;23;20370;-88
2022/01/08 13:40:05;;;;;;;75.57;21.70;;;4.90;99.90;;;;;;6114670;23;20147;-88
2022/01/08 13:42:39;;;;;;;77.03;23.90;;;4.80;99.90;;;;;;6140648;23;20150;-88
2022/01/08 13:45:18;;;;;;;81.35;28.33;;;4.90;99.90;;;;;;6138660;23;20166;-88
2022/01/08 13:47:55;;;;;;;76.00;23.85;;;4.80;99.90;;;;;;6142924;23;20126;-88
2022/01/08 13:50:37;;;;;;;71.28;12.88;;;4.80;99.90;;;;;;6117571;23;20135;-88
2022/01/08 13:53:11;;;;;;;72.90;15.20;;;4.70;99.90;;;;;;6117879;23;20175;-88
2022/01/08 13:55:40;;;;;;;73.63;18.85;;;4.60;99.90;;;;;;6138399;23;20166;-88
2022/01/08 13:58:14;;;;;;;73.68;18.73;;;4.50;99.90;;;;;;6110888;23;20146;-88
2022/01/08 14:00:49;;;;;;;80.32;39.55;;;4.50;99.90;;;;;;6109417;23;20150;-88
2022/01/08 14:03:32;;;;;;;80.82;39.55;;;4.30;99.90;;;;;;6105223;23;20146;-88
2022/01/08 14:06:00;;;;;;;83.88;40.78;;;4.30;99.90;;;;;;6104033;23;20249;-88
2022/01/08 14:08:27;;;;;;;85.18;51.05;;;4.20;99.90;;;;;;6102432;23;20177;-89
2022/01/08 14:10:58;;;;;;;83.93;47.28;;;4.20;99.90;;;;;;6131221;23;20197;-88
2022/01/08 14:13:32;;;;;;;80.90;37.95;;;4.20;99.90;;;;;;6131067;23;20213;-88
2022/01/08 14:16:04;;;;;;;81.30;29.13;;;4.20;99.90;;;;;;6104130;23;20197;-88
2022/01/08 14:18:30;;;;;;;78.38;30.58;;;4.20;99.90;;;;;;6102161;23;20154;-89
2022/01/08 14:21:15;;;;;;;78.85;29.63;;;4.10;99.90;;;;;;6101679;23;20162;-89
2022/01/08 14:23:42;;;;;;;81.25;35.00;;;4.00;99.90;;;;;;6102529;23;20174;-90
2022/01/08 14:26:14;;;;;;;83.60;41.25;;;3.80;99.90;;;;;;6102207;23;20161;-89
2022/01/08 14:28:40;;;;;;;89.47;64.20;;;3.60;99.90;;;;;;6129332;23;20146;-89
2022/01/08 14:31:17;;;;;;;89.00;62.53;;;3.50;99.90;;;;;;6103809;23;20252;-89
2022/01/08 14:34:03;;;;;;;91.30;72.22;;;3.50;99.90;;;;;;6130050;23;20421;-89
2022/01/08 14:36:56;;;;;;;97.05;86.20;;;3.40;99.90;;;;;;6129331;23;20618;-88
2022/01/08 14:39:48;;;;;;;108.25;97.22;;;3.50;99.90;;;;;;6102648;23;20477;-88
2022/01/08 14:42:19;;;;;;;91.40;74.32;;;3.40;99.90;;;;;;6122714;23;20147;-88
2022/01/08 14:44:54;;;;;;;130.55;118.30;;;3.50;99.90;;;;;;6127925;23;20671;-88
2022/01/08 14:47:32;;;;;;;120.63;108.68;;;3.40;99.90;;;;;;6127576;23;20162;-89
2022/01/08 14:49:58;;;;;;;105.82;94.90;;;3.40;99.90;;;;;;6127886;23;20217;-89
2022/01/08 14:52:24;;;;;;;126.80;114.93;;;3.40;99.90;;;;;;6101281;23;20146;-88
2022/01/08 14:54:49;;;;;;;135.80;124.07;;;3.40;99.90;;;;;;6102392;23;20174;-88
2022/01/08 14:57:18;;;;;;;150.63;138.23;;;3.40;99.90;;;;;;6102112;23;20147;-88
2022/01/08 14:59:44;;;;;;;122.45;111.22;;;3.40;99.90;;;;;;6102321;23;20271;-88
2022/01/08 15:02:09;;;;;;;132.40;120.27;;;3.40;99.90;;;;;;6129392;23;20166;-88
2022/01/08 15:04:37;;;;;;;123.67;112.47;;;3.50;99.90;;;;;;6105680;23;20183;-88
2022/01/08 15:07:03;;;;;;;125.80;114.43;;;3.50;99.90;;;;;;6131289;23;20168;-88
2022/01/08 15:09:29;;;;;;;130.70;118.93;;;3.50;99.90;;;;;;6133172;23;20181;-88
2022/01/08 15:11:55;;;;;;;144.13;131.57;;;3.60;99.90;;;;;;6108117;23;20151;-88
2022/01/08 15:14:24;;;;;;;114.35;103.20;;;3.60;99.90;;;;;;6140398;23;20221;-87
2022/01/08 15:16:50;;;;;;;119.68;108.57;;;3.60;99.90;;;;;;6146370;23;20139;-88
2022/01/08 15:19:16;;;;;;;113.75;102.75;;;3.50;99.90;;;;;;6146012;23;20143;-88
2022/01/08 15:21:42;;;;;;;116.60;105.57;;;3.50;99.90;;;;;;6138797;23;20178;-88
2022/01/08 15:24:08;;;;;;;161.27;148.27;;;3.50;99.90;;;;;;6137182;23;20162;-88
2022/01/08 15:26:37;;;;;;;109.55;98.68;;;3.50;99.90;;;;;;6109329;23;20202;-88
2022/01/08 15:29:03;;;;;;;117.10;105.80;;;3.50;99.90;;;;;;6111681;23;20161;-88
2022/01/08 15:31:29;;;;;;;121.87;110.07;;;3.50;99.90;;;;;;6137961;23;20592;-88
2022/01/08 15:33:55;;;;;;;129.45;117.68;;;3.50;99.90;;;;;;6111683;23;20430;-88
2022/01/08 15:36:24;;;;;;;143.57;131.03;;;3.40;99.90;;;;;;6110737;23;20154;-88
2022/01/08 15:38:50;;;;;;;155.57;142.70;;;3.40;99.90;;;;;;6137119;23;20150;-88
2022/01/08 15:41:15;;;;;;;124.97;112.97;;;3.40;99.90;;;;;;6135783;23;20138;-88
2022/01/08 15:43:41;;;;;;;137.67;125.43;;;3.40;99.90;;;;;;6137037;23;20421;-88
2022/01/08 15:46:07;;;;;;;147.23;134.60;;;3.40;99.90;;;;;;6109923;23;20158;-88
2022/01/08 15:48:33;;;;;;;141.03;128.57;;;3.40;99.90;;;;;;6138224;23;20230;-88
2022/01/08 15:50:59;;;;;;;148.73;136.33;;;3.30;99.90;;;;;;6137573;23;20157;-88
2022/01/08 15:53:26;;;;;;;141.63;128.88;;;3.30;99.90;;;;;;6138406;23;20410;-88
2022/01/08 15:55:52;;;;;;;169.77;156.25;;;3.40;99.90;;;;;;6112036;23;20225;-88
2022/01/08 15:58:18;;;;;;;139.52;127.50;;;3.30;99.90;;;;;;6111906;23;20175;-88
2022/01/08 16:00:44;;;;;;;146.68;132.52;;;3.40;99.90;;;;;;6137180;23;20167;-88
2022/01/08 16:03:10;;;;;;;151.63;137.70;;;3.40;99.90;;;;;;6137694;23;20185;-88
2022/01/08 16:05:36;;;;;;;162.50;148.80;;;3.40;99.90;;;;;;6136537;23;20163;-88
2022/01/08 16:08:04;;;;;;;126.05;114.28;;;3.40;99.90;;;;;;6111390;23;20151;-88
2022/01/08 16:10:30;;;;;;;143.05;130.80;;;3.40;99.90;;;;;;6111515;23;20158;-88
2022/01/08 16:12:56;;;;;;;155.15;142.30;;;3.40;99.90;;;;;;6136938;23;20518;-88
2022/01/08 16:15:25;;;;;;;125.63;114.13;;;3.40;99.90;;;;;;6137052;23;20166;-88
2022/01/08 16:17:51;;;;;;;180.35;166.57;;;3.40;99.90;;;;;;6111322;23;20378;-88
2022/01/08 16:20:17;;;;;;;137.63;125.53;;;3.40;99.90;;;;;;6135415;23;20210;-87
2022/01/08 16:22:46;;;;;;;131.10;119.03;;;3.50;99.90;;;;;;6130232;23;20379;-87
2022/01/08 16:25:12;;;;;;;186.57;172.02;;;3.40;99.90;;;;;;6104910;23;20177;-87
2022/01/08 16:27:37;;;;;;;156.57;143.27;;;3.40;99.90;;;;;;6105811;23;20226;-88
2022/01/08 16:30:04;;;;;;;155.37;142.70;;;3.40;99.90;;;;;;6131299;23;20146;-87
2022/01/08 16:32:30;;;;;;;138.40;126.40;;;3.40;99.90;;;;;;6130655;23;20441;-88
2022/01/08 16:34:56;;;;;;;157.23;144.77;;;3.50;99.90;;;;;;6104329;23;20170;-87
2022/01/08 16:37:21;;;;;;;149.63;137.30;;;3.50;99.90;;;;;;6106158;23;20225;-88
2022/01/08 16:39:47;;;;;;;137.13;123.03;;;3.50;99.90;;;;;;6130660;23;20370;-87
2022/01/08 16:42:14;;;;;;;147.73;134.37;;;3.50;99.90;;;;;;6130112;23;20143;-87
2022/01/08 16:44:40;;;;;;;160.57;146.95;;;3.60;99.90;;;;;;6104846;23;20170;-88
2022/01/08 16:47:06;;;;;;;129.48;117.60;;;3.50;99.90;;;;;;6130207;23;20143;-88
2022/01/08 16:49:32;;;;;;;134.52;122.30;;;3.60;99.90;;;;;;6105265;23;20150;-88
2022/01/08 16:51:58;;;;;;;215.27;199.57;;;3.60;99.90;;;;;;6130648;23;20193;-88
2022/01/08 16:54:25;;;;;;;150.83;138.00;;;3.50;99.90;;;;;;6130892;23;20182;-88
2022/01/08 16:56:51;;;;;;;138.60;126.32;;;3.60;99.90;;;;;;6131891;23;20406;-88
2022/01/08 16:59:18;;;;;;;138.98;126.63;;;3.60;99.90;;;;;;6130098;23;20262;-88
2022/01/08 17:01:46;;;;;;;154.02;141.07;;;3.60;99.90;;;;;;6104598;23;20592;-88
2022/01/08 17:04:12;;;;;;;126.82;115.03;;;3.60;99.90;;;;;;6103949;23;20194;-88
2022/01/08 17:06:38;;;;;;;123.60;111.80;;;3.70;99.90;;;;;;6131311;23;20691;-88
2022/01/08 17:09:03;;;;;;;127.20;115.50;;;3.70;99.90;;;;;;6130533;23;20146;-88
2022/01/08 17:11:29;;;;;;;115.30;104.30;;;3.70;99.90;;;;;;6131537;23;20146;-88
2022/01/08 17:13:55;;;;;;;124.37;112.90;;;3.70;99.90;;;;;;6130638;23;20186;-88
2022/01/08 17:16:24;;;;;;;134.73;122.80;;;3.70;99.90;;;;;;6130564;23;20151;-88
2022/01/08 17:18:49;;;;;;;139.27;126.80;;;3.80;99.90;;;;;;6104586;23;20157;-88
2022/01/08 17:21:15;;;;;;;111.63;100.67;;;3.70;99.90;;;;;;6106090;23;20178;-88
2022/01/08 17:23:41;;;;;;;103.20;92.17;;;3.70;99.90;;;;;;6109369;23;20174;-89
2022/01/08 17:26:10;;;;;;;126.00;114.53;;;3.70;99.90;;;;;;6133774;23;20149;-88
2022/01/08 17:28:36;;;;;;;135.32;123.20;;;3.80;99.90;;;;;;6134103;23;20374;-88
2022/01/08 17:31:07;;;;;;;119.95;108.30;;;3.80;99.90;;;;;;6108388;23;20157;-88